createdAt,value
2023-03-13T00:00:59.786Z,6.68
2023-03-13T00:03:31.243Z,6.55
2023-03-13T00:06:02.652Z,6.68
2023-03-13T00:08:34.137Z,6.90
2023-03-13T00:11:07.838Z,6.97
2023-03-13T00:13:39.495Z,6.85
2023-03-13T00:16:13.967Z,6.67
2023-03-13T00:18:47.161Z,7.10
2023-03-13T00:21:20.576Z,7.55
2023-03-13T00:23:52.009Z,7.20
2023-03-13T00:26:26.121Z,7.35
2023-03-13T00:28:57.575Z,7.43
2023-03-13T00:31:32.433Z,7.00
2023-03-13T00:34:04.973Z,7.00
2023-03-13T00:36:36.591Z,6.60
2023-03-13T00:39:08.163Z,7.15
2023-03-13T00:41:39.645Z,7.38
2023-03-13T00:44:11.074Z,7.28
2023-03-13T00:46:42.530Z,7.25
2023-03-13T00:49:13.983Z,6.67
2023-03-13T00:51:45.440Z,6.75
2023-03-13T00:54:16.956Z,7.13
2023-03-13T00:56:48.424Z,6.90
2023-03-13T00:59:19.841Z,6.90
2023-03-13T01:01:51.248Z,6.65
2023-03-13T01:04:22.722Z,6.15
2023-03-13T01:06:54.195Z,6.75
2023-03-13T01:09:25.663Z,6.13
2023-03-13T01:11:57.131Z,6.23
2023-03-13T01:14:28.654Z,6.63
2023-03-13T01:17:00.095Z,6.43
2023-03-13T01:19:31.533Z,6.50
2023-03-13T01:22:02.987Z,6.30
2023-03-13T01:24:34.474Z,6.60
2023-03-13T01:27:06.021Z,7.20
2023-03-13T01:29:37.508Z,6.85
2023-03-13T01:32:08.920Z,6.68
2023-03-13T01:34:40.506Z,7.95
2023-03-13T01:37:11.987Z,7.07
2023-03-13T01:39:43.414Z,7.50
2023-03-13T01:42:14.836Z,7.25
2023-03-13T01:44:54.298Z,7.30
2023-03-13T01:47:25.773Z,7.38
2023-03-13T01:49:57.250Z,6.80
2023-03-13T01:52:29.792Z,7.32
2023-03-13T01:55:09.579Z,6.90
2023-03-13T01:57:43.991Z,7.25
2023-03-13T02:00:24.763Z,7.07
2023-03-13T02:03:01.818Z,7.03
2023-03-13T02:05:33.752Z,7.07
2023-03-13T02:08:11.786Z,7.50
2023-03-13T02:10:51.463Z,7.45
2023-03-13T02:13:22.960Z,7.75
2023-03-13T02:15:54.669Z,7.07
2023-03-13T02:18:26.116Z,8.05
2023-03-13T02:21:08.429Z,6.73
2023-03-13T02:23:53.516Z,7.28
2023-03-13T02:26:25.029Z,6.90
2023-03-13T02:28:56.502Z,7.30
2023-03-13T02:31:28.031Z,7.30
2023-03-13T02:34:01.624Z,7.38
2023-03-13T02:36:33.328Z,6.97
2023-03-13T02:39:06.896Z,6.88
2023-03-13T02:41:40.402Z,7.35
2023-03-13T02:44:11.956Z,7.20
2023-03-13T02:46:45.908Z,6.68
2023-03-13T02:49:29.130Z,5.90
2023-03-13T02:52:14.779Z,5.15
2023-03-13T02:54:49.893Z,4.77
2023-03-13T02:57:21.602Z,5.35
2023-03-13T02:59:53.136Z,4.80
2023-03-13T03:02:24.659Z,4.50
2023-03-13T03:04:56.126Z,3.90
2023-03-13T03:07:27.553Z,3.85
2023-03-13T03:09:59.013Z,4.00
2023-03-13T03:12:30.609Z,3.67
2023-03-13T03:15:02.522Z,4.30
2023-03-13T03:17:34.081Z,3.90
2023-03-13T03:20:05.943Z,3.55
2023-03-13T03:22:38.669Z,3.97
2023-03-13T03:25:10.159Z,3.55
2023-03-13T03:27:41.610Z,4.03
2023-03-13T03:30:13.256Z,4.00
2023-03-13T03:32:44.737Z,4.25
2023-03-13T03:35:16.292Z,4.03
2023-03-13T03:37:47.721Z,3.75
2023-03-13T03:40:19.281Z,3.88
2023-03-13T03:42:50.730Z,4.30
2023-03-13T03:45:22.155Z,3.87
2023-03-13T03:47:53.584Z,3.85
2023-03-13T03:50:27.934Z,4.30
2023-03-13T03:52:59.334Z,3.97
2023-03-13T03:55:30.820Z,3.90
2023-03-13T03:58:02.257Z,4.00
2023-03-13T04:00:33.782Z,4.25
2023-03-13T04:03:05.328Z,4.22
2023-03-13T04:05:36.877Z,4.50
2023-03-13T04:08:09.084Z,4.53
2023-03-13T04:10:40.492Z,4.40
2023-03-13T04:13:11.968Z,4.40
2023-03-13T04:15:43.568Z,4.40
2023-03-13T04:18:15.154Z,5.20
2023-03-13T04:20:46.701Z,4.30
2023-03-13T04:23:18.169Z,4.43
2023-03-13T04:25:49.645Z,4.20
2023-03-13T04:28:21.154Z,4.35
2023-03-13T04:30:52.644Z,4.55
2023-03-13T04:33:25.493Z,4.78
2023-03-13T04:35:56.962Z,4.82
2023-03-13T04:38:28.445Z,4.53
2023-03-13T04:40:59.931Z,4.35
2023-03-13T04:43:31.378Z,4.63
2023-03-13T04:46:02.818Z,4.73
2023-03-13T04:48:34.327Z,4.30
2023-03-13T04:51:05.856Z,6.00
2023-03-13T04:53:37.301Z,4.90
2023-03-13T04:56:09.271Z,4.68
2023-03-13T04:58:40.711Z,4.45
2023-03-13T05:01:12.141Z,4.43
2023-03-13T05:03:43.682Z,4.70
2023-03-13T05:06:15.146Z,4.53
2023-03-13T05:08:50.073Z,4.43
2023-03-13T05:11:21.602Z,4.15
2023-03-13T05:13:53.013Z,4.40
2023-03-13T05:16:24.533Z,4.67
2023-03-13T05:18:56.068Z,4.53
2023-03-13T05:21:27.553Z,4.23
2023-03-13T05:23:59.082Z,4.28
2023-03-13T05:26:30.524Z,4.43
2023-03-13T05:29:02.008Z,4.25
2023-03-13T05:31:33.596Z,4.80
2023-03-13T05:34:05.073Z,4.00
2023-03-13T05:36:36.606Z,4.15
2023-03-13T05:39:08.110Z,4.18
2023-03-13T05:41:39.576Z,4.30
2023-03-13T05:44:10.970Z,4.40
2023-03-13T05:46:42.493Z,4.32
2023-03-13T05:49:14.027Z,4.05
2023-03-13T05:51:45.482Z,4.07
2023-03-13T05:54:16.908Z,3.88
2023-03-13T05:56:48.328Z,4.40
2023-03-13T05:59:19.820Z,4.82
2023-03-13T06:01:51.316Z,4.63
2023-03-13T06:04:23.118Z,4.60
2023-03-13T06:06:54.637Z,4.40
2023-03-13T06:09:26.103Z,4.38
2023-03-13T06:11:57.592Z,4.68
2023-03-13T06:14:28.992Z,4.60
2023-03-13T06:17:00.402Z,4.60
2023-03-13T06:19:32.230Z,4.37
2023-03-13T06:22:03.922Z,5.30
2023-03-13T06:24:35.382Z,4.70
2023-03-13T06:27:07.344Z,4.47
2023-03-13T06:29:38.735Z,4.60
2023-03-13T06:32:10.312Z,4.97
2023-03-13T06:34:41.821Z,4.97
2023-03-13T06:37:13.250Z,5.30
2023-03-13T06:39:44.702Z,5.35
2023-03-13T06:42:16.113Z,4.88
2023-03-13T06:44:47.556Z,4.90
2023-03-13T06:47:19.093Z,4.45
2023-03-13T06:49:50.590Z,5.20
2023-03-13T06:52:24.733Z,5.22
2023-03-13T06:55:03.048Z,5.32
2023-03-13T06:57:34.670Z,4.35
2023-03-13T07:00:06.798Z,5.03
2023-03-13T07:02:38.220Z,5.13
2023-03-13T07:05:09.880Z,4.80
2023-03-13T07:07:43.462Z,4.10
2023-03-13T07:10:14.929Z,4.63
2023-03-13T07:12:46.371Z,4.80
2023-03-13T07:15:17.864Z,4.20
2023-03-13T07:17:49.320Z,4.20
2023-03-13T07:20:20.868Z,4.57
2023-03-13T07:22:53.437Z,4.28
2023-03-13T07:25:24.903Z,3.53
2023-03-13T07:27:56.357Z,3.97
2023-03-13T07:30:28.680Z,3.92
2023-03-13T07:33:00.259Z,4.30
2023-03-13T07:35:31.741Z,3.97
2023-03-13T07:38:03.529Z,4.23
2023-03-13T07:40:34.996Z,3.92
2023-03-13T07:43:06.435Z,4.43
2023-03-13T07:45:37.915Z,3.63
2023-03-13T07:48:09.363Z,3.80
2023-03-13T07:50:40.872Z,3.97
2023-03-13T07:53:14.298Z,4.35
2023-03-13T07:55:57.974Z,3.22
2023-03-13T07:58:32.265Z,3.40
2023-03-13T08:01:19.304Z,2.90
2023-03-13T08:03:50.754Z,3.08
2023-03-13T08:06:24.385Z,3.10
2023-03-13T08:08:57.915Z,3.78
2023-03-13T08:11:29.667Z,2.90
2023-03-13T08:14:01.122Z,3.50
2023-03-13T08:16:34.673Z,2.95
2023-03-13T08:19:06.354Z,3.13
2023-03-13T08:21:38.230Z,3.10
2023-03-13T08:24:11.506Z,3.35
2023-03-13T08:26:42.965Z,3.28
2023-03-13T08:29:15.256Z,3.10
2023-03-13T08:31:49.094Z,3.83
2023-03-13T08:34:20.577Z,3.67
2023-03-13T08:36:52.172Z,3.78
2023-03-13T08:39:24.100Z,3.63
2023-03-13T08:41:55.494Z,3.80
2023-03-13T08:44:27.017Z,3.47
2023-03-13T08:46:58.506Z,3.80
2023-03-13T08:49:29.983Z,3.75
2023-03-13T08:52:01.509Z,4.15
2023-03-13T08:54:33.880Z,4.47
2023-03-13T08:57:05.319Z,4.33
2023-03-13T08:59:36.729Z,4.55
2023-03-13T09:02:09.797Z,4.68
2023-03-13T09:04:41.258Z,4.90
2023-03-13T09:07:12.753Z,4.57
2023-03-13T09:09:44.499Z,4.97
2023-03-13T09:12:29.942Z,5.05
2023-03-13T09:15:02.186Z,4.90
2023-03-13T09:17:33.772Z,4.40
2023-03-13T09:20:05.631Z,4.82
2023-03-13T09:22:37.048Z,4.80
2023-03-13T09:25:08.946Z,4.63
2023-03-13T09:27:40.450Z,4.28
2023-03-13T09:30:12.247Z,5.03
2023-03-13T09:32:43.765Z,3.40
2023-03-13T09:35:15.300Z,3.20
2023-03-13T09:37:46.782Z,2.65
2023-03-13T09:40:21.333Z,3.00
2023-03-13T09:42:56.847Z,2.97
2023-03-13T09:45:32.961Z,2.97
2023-03-13T09:48:29.068Z,2.40
2023-03-13T09:51:13.522Z,2.47
2023-03-13T09:53:49.690Z,2.40
2023-03-13T09:56:25.034Z,2.27
2023-03-13T09:59:05.694Z,2.17
2023-03-13T10:01:40.335Z,2.13
2023-03-13T10:04:28.716Z,1.98
2023-03-13T10:07:00.212Z,2.25
2023-03-13T10:09:33.749Z,2.92
2023-03-13T10:12:13.607Z,2.35
2023-03-13T10:15:07.999Z,3.15
2023-03-13T10:17:40.428Z,2.97
2023-03-13T10:20:35.391Z,3.80
2023-03-13T10:23:14.443Z,3.88
2023-03-13T10:25:46.001Z,3.53
2023-03-13T10:28:18.895Z,3.47
2023-03-13T10:30:57.273Z,4.40
2023-03-13T10:33:29.704Z,4.55
2023-03-13T10:36:05.044Z,4.40
2023-03-13T10:38:54.126Z,3.95
2023-03-13T10:41:33.329Z,4.57
2023-03-13T10:44:07.129Z,4.28
2023-03-13T10:46:41.716Z,5.40
2023-03-13T10:49:17.884Z,4.30
2023-03-13T10:51:51.172Z,3.85
2023-03-13T10:54:34.128Z,4.50
2023-03-13T10:57:19.772Z,4.45
2023-03-13T10:59:53.017Z,4.53
2023-03-13T11:02:27.316Z,5.25
2023-03-13T11:04:58.835Z,5.03
2023-03-13T11:07:34.274Z,4.47
2023-03-13T11:10:22.738Z,4.63
2023-03-13T11:12:56.545Z,5.68
2023-03-13T11:15:38.318Z,5.93
2023-03-13T11:18:23.817Z,5.63
2023-03-13T11:20:59.170Z,6.18
2023-03-13T11:23:46.064Z,6.00
2023-03-13T11:26:58.508Z,6.22
2023-03-13T11:30:15.800Z,6.40
2023-03-13T11:33:00.417Z,6.18
2023-03-13T11:35:49.957Z,5.55
2023-03-13T11:38:34.084Z,6.50
2023-03-13T11:41:17.710Z,6.55
2023-03-13T11:44:04.146Z,6.68
2023-03-13T11:47:07.353Z,6.45
2023-03-13T11:49:57.800Z,7.60
2023-03-13T11:52:35.213Z,7.57
2023-03-13T11:55:29.533Z,6.78
2023-03-13T11:58:13.171Z,7.47
2023-03-13T12:00:52.513Z,7.78
2023-03-13T12:03:36.374Z,7.10
2023-03-13T12:06:28.290Z,7.10
2023-03-13T12:09:28.736Z,7.43
2023-03-13T12:12:25.993Z,7.30
2023-03-13T12:15:26.950Z,6.70
2023-03-13T12:18:21.399Z,7.60
2023-03-13T12:21:04.450Z,7.30
2023-03-13T12:24:29.740Z,8.13
2023-03-13T12:27:25.215Z,7.40
2023-03-13T12:30:06.865Z,6.22
2023-03-13T12:32:54.081Z,7.70
2023-03-13T12:35:28.450Z,7.23
2023-03-13T12:38:15.449Z,7.03
2023-03-13T12:41:01.737Z,6.95
2023-03-13T12:43:34.391Z,7.53
2023-03-13T12:46:23.558Z,8.13
2023-03-13T12:49:07.004Z,7.97
2023-03-13T12:51:59.834Z,7.25
2023-03-13T12:54:52.936Z,7.28
2023-03-13T12:57:46.031Z,7.00
2023-03-13T13:00:26.845Z,7.95
2023-03-13T13:03:02.756Z,7.05
2023-03-13T13:05:34.257Z,8.32
2023-03-13T13:08:05.693Z,6.68
2023-03-13T13:10:37.169Z,6.68
2023-03-13T13:13:14.471Z,7.80
2023-03-13T13:16:01.845Z,7.75
2023-03-13T13:18:34.595Z,7.65
2023-03-13T13:21:06.029Z,7.53
2023-03-13T13:23:39.192Z,9.30
2023-03-13T13:26:25.915Z,8.18
2023-03-13T13:29:00.134Z,8.57
2023-03-13T13:31:49.613Z,8.70
2023-03-13T13:34:30.034Z,8.52
2023-03-13T13:37:03.601Z,8.68
2023-03-13T13:39:43.000Z,8.10
2023-03-13T13:42:29.889Z,7.72
2023-03-13T13:45:04.448Z,7.80
2023-03-13T13:47:35.915Z,8.52
2023-03-13T13:50:16.512Z,7.87
2023-03-13T13:52:49.850Z,7.90
2023-03-13T13:55:39.578Z,7.88
2023-03-13T13:58:17.702Z,7.25
2023-03-13T14:01:00.505Z,7.43
2023-03-13T14:03:33.588Z,7.65
2023-03-13T14:06:35.695Z,8.55
2023-03-13T14:09:34.260Z,7.43
2023-03-13T14:12:25.418Z,7.20
2023-03-13T14:15:09.394Z,7.63
2023-03-13T14:17:49.809Z,7.27
2023-03-13T14:20:29.604Z,7.20
2023-03-13T14:23:11.799Z,7.00
2023-03-13T14:25:46.044Z,7.40
2023-03-13T14:28:20.661Z,7.00
2023-03-13T14:30:55.442Z,8.10
2023-03-13T14:33:27.994Z,7.40
2023-03-13T14:35:59.598Z,8.00
2023-03-13T14:38:31.762Z,7.88
2023-03-13T14:41:03.576Z,8.32
2023-03-13T14:43:37.097Z,8.30
2023-03-13T14:46:29.618Z,8.32
2023-03-13T14:49:13.233Z,8.05
2023-03-13T14:51:44.771Z,8.13
2023-03-13T14:54:30.166Z,8.35
2023-03-13T14:57:10.714Z,8.98
2023-03-13T14:59:43.342Z,8.88
2023-03-13T15:02:20.589Z,8.63
2023-03-13T15:04:57.237Z,8.40
2023-03-13T15:07:36.463Z,8.63
2023-03-13T15:10:32.029Z,8.13
2023-03-13T15:13:28.121Z,8.43
2023-03-13T15:16:00.444Z,8.73
2023-03-13T15:18:34.720Z,8.80
2023-03-13T15:21:15.482Z,8.30
2023-03-13T15:23:55.775Z,8.70
2023-03-13T15:26:28.088Z,9.18
2023-03-13T15:28:59.595Z,8.35
2023-03-13T15:31:31.967Z,7.95
2023-03-13T15:34:03.696Z,9.30
2023-03-13T15:36:35.165Z,8.30
2023-03-13T15:39:16.873Z,7.95
2023-03-13T15:41:48.328Z,7.65
2023-03-13T15:44:19.815Z,8.23
2023-03-13T15:46:51.292Z,8.35
2023-03-13T15:49:22.735Z,7.15
2023-03-13T15:51:55.785Z,7.13
2023-03-13T15:54:28.294Z,8.13
2023-03-13T15:56:59.747Z,7.70
2023-03-13T15:59:31.200Z,7.15
2023-03-13T16:02:02.704Z,7.85
2023-03-13T16:04:34.262Z,7.20
2023-03-13T16:07:17.252Z,7.65
2023-03-13T16:09:49.231Z,7.37
2023-03-13T16:12:20.744Z,8.57
2023-03-13T16:14:52.184Z,7.50
2023-03-13T16:17:23.615Z,7.90
2023-03-13T16:19:55.061Z,7.70
2023-03-13T16:22:26.499Z,8.88
2023-03-13T16:24:57.911Z,7.72
2023-03-13T16:27:29.377Z,7.10
2023-03-13T16:30:00.988Z,7.85
2023-03-13T16:32:32.744Z,7.57
2023-03-13T16:35:04.487Z,7.88
2023-03-13T16:37:35.967Z,8.27
2023-03-13T16:40:31.768Z,7.50
2023-03-13T16:43:03.363Z,7.60
2023-03-13T16:45:34.908Z,7.87
2023-03-13T16:48:06.491Z,8.05
2023-03-13T16:50:38.456Z,8.15
2023-03-13T16:53:09.925Z,8.45
2023-03-13T16:55:41.403Z,8.27
2023-03-13T16:58:12.961Z,8.05
2023-03-13T17:03:35.834Z,8.02
2023-03-13T17:06:13.772Z,8.30
2023-03-13T17:08:45.287Z,8.50
2023-03-13T17:11:18.513Z,8.77
2023-03-13T17:13:52.342Z,9.05
2023-03-13T17:16:33.649Z,8.40
2023-03-13T17:19:05.539Z,8.85
2023-03-13T17:21:37.017Z,8.98
2023-03-13T17:24:08.880Z,8.70
2023-03-13T17:26:40.606Z,8.05
2023-03-13T17:29:17.850Z,8.00
2023-03-13T17:31:50.089Z,8.75
2023-03-13T17:34:21.551Z,8.68
2023-03-13T17:36:52.954Z,8.98
2023-03-13T17:39:24.406Z,9.20
2023-03-13T17:41:55.820Z,8.98
2023-03-13T17:44:27.278Z,10.43
2023-03-13T17:46:58.857Z,9.02
2023-03-13T17:49:30.299Z,9.40
2023-03-13T17:52:01.769Z,8.93
2023-03-13T17:54:33.275Z,8.73
2023-03-13T17:57:13.517Z,8.98
2023-03-13T17:59:45.990Z,8.88
2023-03-13T18:02:17.517Z,9.02
2023-03-13T18:04:48.969Z,9.00
2023-03-13T18:07:27.270Z,9.02
2023-03-13T18:09:58.830Z,8.90
2023-03-13T18:12:30.271Z,8.85
2023-03-13T18:15:01.774Z,8.77
2023-03-13T18:17:33.266Z,10.27
2023-03-13T18:20:05.290Z,9.88
2023-03-13T18:22:36.777Z,9.13
2023-03-13T18:25:08.725Z,9.57
2023-03-13T18:27:40.759Z,9.80
2023-03-13T18:30:23.470Z,8.73
2023-03-13T18:32:55.008Z,9.52
2023-03-13T18:35:26.561Z,8.75
2023-03-13T18:37:58.101Z,9.43
2023-03-13T18:40:31.311Z,8.95
2023-03-13T18:43:02.712Z,8.83
2023-03-13T18:45:34.231Z,7.97
2023-03-13T18:48:10.205Z,8.77
2023-03-13T18:50:41.756Z,8.20
2023-03-13T18:53:13.196Z,8.13
2023-03-13T18:55:44.676Z,8.90
2023-03-13T18:58:16.127Z,8.33
2023-03-13T19:00:47.646Z,9.00
2023-03-13T19:03:19.204Z,8.32
2023-03-13T19:05:50.696Z,7.95
2023-03-13T19:08:22.195Z,8.25
2023-03-13T19:10:53.761Z,7.80
2023-03-13T19:13:25.200Z,8.32
2023-03-13T19:15:56.665Z,7.70
2023-03-13T19:18:28.084Z,8.15
2023-03-13T19:20:59.531Z,7.68
2023-03-13T19:23:31.001Z,8.60
2023-03-13T19:26:02.571Z,8.73
2023-03-13T19:28:34.019Z,7.60
2023-03-13T19:31:05.521Z,7.80
2023-03-13T19:33:36.985Z,7.88
2023-03-13T19:36:16.684Z,8.15
2023-03-13T19:38:48.949Z,8.18
2023-03-13T19:41:20.431Z,7.47
2023-03-13T19:43:51.884Z,8.48
2023-03-13T19:46:26.387Z,8.70
2023-03-13T19:49:00.195Z,8.38
2023-03-13T19:51:32.065Z,7.88
2023-03-13T19:54:04.153Z,7.85
2023-03-13T19:56:36.338Z,8.23
2023-03-13T19:59:15.601Z,8.20
2023-03-13T20:01:47.125Z,7.57
2023-03-13T20:04:18.784Z,8.15
2023-03-13T20:06:50.456Z,8.35
2023-03-13T20:09:21.914Z,8.10
2023-03-13T20:11:53.426Z,7.35
2023-03-13T20:14:24.859Z,8.63
2023-03-13T20:16:56.271Z,8.30
2023-03-13T20:19:27.801Z,7.38
2023-03-13T20:21:59.244Z,7.75
2023-03-13T20:24:32.456Z,8.55
2023-03-13T20:27:03.943Z,7.25
2023-03-13T20:29:35.606Z,8.02
2023-03-13T20:32:08.197Z,7.75
2023-03-13T20:34:39.672Z,7.53
2023-03-13T20:37:11.131Z,7.43
2023-03-13T20:39:42.547Z,7.57
2023-03-13T20:42:13.973Z,7.35
2023-03-13T20:44:45.537Z,7.95
2023-03-13T20:47:17.353Z,7.47
2023-03-13T20:49:48.830Z,7.65
2023-03-13T20:52:20.242Z,8.05
2023-03-13T20:54:51.720Z,7.47
2023-03-13T20:57:23.199Z,6.80
2023-03-13T20:59:54.715Z,6.85
2023-03-13T21:02:26.201Z,7.45
2023-03-13T21:04:57.893Z,7.03
2023-03-13T21:07:29.370Z,6.80
2023-03-13T21:10:00.953Z,7.13
2023-03-13T21:12:32.458Z,6.82
2023-03-13T21:15:06.194Z,6.60
2023-03-13T21:17:38.613Z,6.60
2023-03-13T21:20:10.963Z,6.63
2023-03-13T21:22:43.280Z,7.20
2023-03-13T21:25:15.161Z,7.03
2023-03-13T21:27:46.998Z,7.32
2023-03-13T21:30:21.040Z,6.55
2023-03-13T21:32:52.566Z,7.80
2023-03-13T21:35:24.048Z,7.18
2023-03-13T21:37:55.511Z,6.80
2023-03-13T21:40:26.954Z,6.28
2023-03-13T21:42:58.502Z,5.90
2023-03-13T21:45:29.935Z,5.63
2023-03-13T21:48:02.213Z,5.78
2023-03-13T21:50:33.745Z,6.03
2023-03-13T21:53:05.130Z,6.30
2023-03-13T21:55:36.553Z,6.72
2023-03-13T21:58:08.128Z,6.68
2023-03-13T22:00:39.644Z,6.50
2023-03-13T22:03:11.230Z,5.90
2023-03-13T22:05:44.311Z,6.50
2023-03-13T22:08:15.894Z,6.20
2023-03-13T22:10:49.154Z,5.78
2023-03-13T22:13:21.393Z,6.07
2023-03-13T22:15:52.857Z,6.35
2023-03-13T22:18:24.434Z,6.25
2023-03-13T22:21:00.179Z,6.50
2023-03-13T22:23:31.631Z,6.07
2023-03-13T22:26:03.621Z,6.32
2023-03-13T22:28:35.743Z,6.70
2023-03-13T22:31:09.950Z,5.78
2023-03-13T22:33:41.463Z,7.07
2023-03-13T22:36:12.996Z,6.07
2023-03-13T22:38:44.484Z,7.35
2023-03-13T22:41:17.002Z,6.38
2023-03-13T22:43:48.459Z,5.95
2023-03-13T22:46:19.993Z,5.95
2023-03-13T22:48:51.471Z,5.45
2023-03-13T22:51:22.946Z,5.07
2023-03-13T22:53:54.465Z,5.03
2023-03-13T22:56:27.582Z,4.97
2023-03-13T22:58:59.204Z,5.18
2023-03-13T23:01:30.691Z,4.80
2023-03-13T23:04:02.196Z,4.33
2023-03-13T23:06:33.730Z,4.53
2023-03-13T23:09:05.451Z,3.85
2023-03-13T23:11:36.897Z,3.60
2023-03-13T23:14:08.312Z,4.37
2023-03-13T23:16:39.796Z,3.78
2023-03-13T23:19:11.276Z,4.30
2023-03-13T23:21:42.730Z,4.20
2023-03-13T23:24:14.517Z,4.13
2023-03-13T23:26:45.979Z,3.60
2023-03-13T23:29:17.461Z,4.22
2023-03-13T23:31:48.932Z,3.65
2023-03-13T23:34:20.388Z,3.47
2023-03-13T23:36:51.820Z,4.10
2023-03-13T23:39:23.286Z,3.55
2023-03-13T23:41:54.711Z,3.27
2023-03-13T23:44:26.134Z,3.10
2023-03-13T23:46:58.356Z,4.18
2023-03-13T23:49:29.812Z,3.08
2023-03-13T23:52:01.283Z,3.50
2023-03-13T23:54:32.776Z,3.72
2023-03-13T23:57:04.968Z,3.38
2023-03-13T23:59:36.382Z,3.83
